Time;durP1;ratioP1;P1;durP2;ratioP2;P2;SDS_P1;SDS_P2;PMS_P1;PMS_P2;Temp;Humidity;BMP_temperature;BMP_pressure;BME280_temperature;BME280_humidity;BME280_pressure;Samples;Min_cycle;Max_cycle;Signal;HPM_P1;HPM_P2
2022/07/23 00:00:08;;;;;;;;;;;28.50;43.10;;;;;;1501310;77;1100;-65
2022/07/23 00:02:09;;;;;;;;;;;28.50;43.20;;;;;;1539363;76;680;-64
2022/07/23 00:04:11;;;;;;;;;;;28.50;43.20;;;;;;1516601;77;730;-65
2022/07/23 00:06:13;;;;;;;;;;;28.50;43.20;;;;;;1521249;77;1929;-65
2022/07/23 00:08:15;;;;;;;;;;;28.60;43.20;;;;;;1511114;77;677;-65
2022/07/23 00:10:17;;;;;;;;;;;28.50;43.20;;;;;;1535019;76;1588;-65
2022/07/23 00:12:19;;;;;;;;;;;28.50;43.20;;;;;;1523625;77;754;-65
2022/07/23 00:14:21;;;;;;;;;;;28.50;43.20;;;;;;1523809;77;737;-65
2022/07/23 00:16:23;;;;;;;;;;;28.50;43.20;;;;;;1527038;77;678;-65
2022/07/23 00:18:24;;;;;;;;;;;28.50;43.20;;;;;;1527819;77;758;-65
2022/07/23 00:20:26;;;;;;;;;;;28.50;43.20;;;;;;1524492;77;1183;-63
2022/07/23 00:22:29;;;;;;;;;;;28.50;43.20;;;;;;1537070;76;906;-65
2022/07/23 00:24:31;;;;;;;;;;;28.50;43.20;;;;;;1533260;76;686;-66
2022/07/23 00:26:32;;;;;;;;;;;28.50;43.20;;;;;;1541491;76;2061;-66
2022/07/23 00:28:35;;;;;;;;;;;28.60;43.20;;;;;;1523534;77;1175;-67
2022/07/23 00:30:36;;;;;;;;;;;28.60;43.20;;;;;;1528363;77;694;-66
2022/07/23 00:32:52;;;;;;;;;;;28.50;43.20;;;;;;1541941;75;667;-65
2022/07/23 00:34:54;;;;;;;;;;;28.50;43.20;;;;;;1554633;75;683;-65
2022/07/23 00:36:56;;;;;;;;;;;28.50;43.20;;;;;;1519134;77;704;-66
2022/07/23 00:39:17;;;;;;;;;;;28.50;43.10;;;;;;1527876;73;224524;-56
2022/07/23 00:41:19;;;;;;;;;;;28.50;43.10;;;;;;1551709;75;718;-57
2022/07/23 00:43:21;;;;;;;;;;;28.60;42.80;;;;;;1582296;73;1098;-57
2022/07/23 00:45:23;;;;;;;;;;;28.50;42.80;;;;;;1596576;73;671;-57
2022/07/23 00:47:25;;;;;;;;;;;28.50;42.70;;;;;;1588404;73;1945;-55
2022/07/23 00:49:28;;;;;;;;;;;28.50;42.60;;;;;;1587015;73;705;-54
2022/07/23 00:51:30;;;;;;;;;;;28.60;42.50;;;;;;1592930;73;679;-57
2022/07/23 00:53:32;;;;;;;;;;;28.50;42.40;;;;;;1587149;73;1076;-56
2022/07/23 00:55:34;;;;;;;;;;;28.50;42.50;;;;;;1598728;73;662;-56
2022/07/23 00:57:35;;;;;;;;;;;28.50;42.50;;;;;;1578622;73;654;-54
2022/07/23 00:59:39;;;;;;;;;;;28.60;42.20;;;;;;1586543;73;713;-55
2022/07/23 01:01:41;;;;;;;;;;;28.50;42.10;;;;;;1590998;73;1141;-57
2022/07/23 01:03:43;;;;;;;;;;;28.50;42.10;;;;;;1592797;73;744;-55
2022/07/23 01:05:44;;;;;;;;;;;28.50;41.90;;;;;;1593480;73;1935;-56
2022/07/23 01:07:46;;;;;;;;;;;28.40;42.00;;;;;;1588109;73;793;-56
2022/07/23 01:09:48;;;;;;;;;;;28.40;41.90;;;;;;1583295;73;716;-57
2022/07/23 01:11:51;;;;;;;;;;;28.40;41.80;;;;;;1596894;73;1125;-54
2022/07/23 01:13:53;;;;;;;;;;;28.40;41.70;;;;;;1579189;73;810;-57
2022/07/23 01:15:55;;;;;;;;;;;28.40;41.60;;;;;;1577921;73;733;-55
2022/07/23 01:17:57;;;;;;;;;;;28.40;41.60;;;;;;1582569;73;732;-55
2022/07/23 01:19:59;;;;;;;;;;;28.30;41.60;;;;;;1582415;73;787;-55
2022/07/23 01:22:02;;;;;;;;;;;28.30;41.60;;;;;;1588510;73;1183;-55
2022/07/23 01:24:04;;;;;;;;;;;28.30;41.60;;;;;;1605556;73;735;-57
2022/07/23 01:26:06;;;;;;;;;;;28.30;41.60;;;;;;1584525;73;1924;-57
2022/07/23 01:28:07;;;;;;;;;;;28.40;41.60;;;;;;1588979;73;677;-54
2022/07/23 01:30:09;;;;;;;;;;;28.30;41.80;;;;;;1576343;73;630;-54
2022/07/23 01:32:11;;;;;;;;;;;28.30;41.80;;;;;;1583305;73;1152;-53
2022/07/23 01:34:13;;;;;;;;;;;28.30;41.80;;;;;;1602895;73;802;-57
2022/07/23 01:36:15;;;;;;;;;;;28.30;41.80;;;;;;1594143;73;707;-55
2022/07/23 01:38:17;;;;;;;;;;;28.30;41.80;;;;;;1596168;73;698;-58
2022/07/23 01:40:19;;;;;;;;;;;28.30;41.80;;;;;;1593181;73;809;-56
2022/07/23 01:42:21;;;;;;;;;;;28.40;41.80;;;;;;1587415;73;1116;-57
2022/07/23 01:44:22;;;;;;;;;;;28.30;41.80;;;;;;1582599;73;683;-56
2022/07/23 01:46:24;;;;;;;;;;;28.40;41.80;;;;;;1589106;73;1950;-55
2022/07/23 01:48:26;;;;;;;;;;;28.40;41.80;;;;;;1580817;73;712;-57
2022/07/23 01:50:28;;;;;;;;;;;28.40;41.80;;;;;;1586123;73;825;-57
2022/07/23 01:52:30;;;;;;;;;;;28.30;41.70;;;;;;1578611;73;1136;-57
2022/07/23 01:54:33;;;;;;;;;;;28.30;41.80;;;;;;1599857;73;743;-56
2022/07/23 01:56:35;;;;;;;;;;;28.30;41.80;;;;;;1598764;73;754;-57
2022/07/23 01:58:37;;;;;;;;;;;28.40;41.80;;;;;;1580326;73;669;-57
2022/07/23 02:00:39;;;;;;;;;;;28.30;41.80;;;;;;1600807;73;669;-57
2022/07/23 02:02:41;;;;;;;;;;;28.30;41.80;;;;;;1582156;73;1517;-57
2022/07/23 02:04:42;;;;;;;;;;;28.40;41.80;;;;;;1578526;73;780;-57
2022/07/23 02:06:44;;;;;;;;;;;28.30;41.80;;;;;;1601322;73;1937;-55
2022/07/23 02:08:46;;;;;;;;;;;28.40;42.00;;;;;;1585641;73;663;-53
2022/07/23 02:10:50;;;;;;;;;;;28.30;42.10;;;;;;1585373;73;705;-56
2022/07/23 02:12:52;;;;;;;;;;;28.30;42.10;;;;;;1570801;73;1636;-57
2022/07/23 02:14:53;;;;;;;;;;;28.30;42.10;;;;;;1575709;73;856;-56
2022/07/23 02:16:55;;;;;;;;;;;28.40;42.20;;;;;;1584158;73;1534;-56
2022/07/23 02:18:57;;;;;;;;;;;28.30;42.20;;;;;;1578361;73;809;-53
2022/07/23 02:20:59;;;;;;;;;;;28.30;42.20;;;;;;1575884;73;659;-54
2022/07/23 02:23:01;;;;;;;;;;;28.30;42.20;;;;;;1587268;73;1180;-57
2022/07/23 02:25:03;;;;;;;;;;;28.30;42.20;;;;;;1577530;73;761;-56
2022/07/23 02:27:05;;;;;;;;;;;28.40;42.20;;;;;;1595959;73;1930;-57
2022/07/23 02:29:07;;;;;;;;;;;28.40;42.10;;;;;;1588141;73;636;-55
2022/07/23 02:31:09;;;;;;;;;;;28.30;42.20;;;;;;1589378;73;1676;-57
2022/07/23 02:33:11;;;;;;;;;;;28.30;42.00;;;;;;1615896;73;1120;-57
2022/07/23 02:35:13;;;;;;;;;;;28.40;42.10;;;;;;1578075;73;752;-56
2022/07/23 02:37:15;;;;;;;;;;;28.40;42.20;;;;;;1598258;73;712;-55
2022/07/23 02:39:17;;;;;;;;;;;28.30;42.20;;;;;;1583436;73;751;-55
2022/07/23 02:41:18;;;;;;;;;;;28.40;42.20;;;;;;1595004;73;785;-57
2022/07/23 02:43:20;;;;;;;;;;;28.30;42.20;;;;;;1587865;73;1140;-57
2022/07/23 02:45:22;;;;;;;;;;;28.30;42.30;;;;;;1584437;73;768;-57
2022/07/23 02:47:24;;;;;;;;;;;28.30;42.20;;;;;;1582030;73;1924;-56
2022/07/23 02:49:26;;;;;;;;;;;28.30;42.30;;;;;;1580634;73;674;-56
2022/07/23 02:51:28;;;;;;;;;;;28.30;42.30;;;;;;1594048;73;604;-55
2022/07/23 02:53:30;;;;;;;;;;;28.10;42.30;;;;;;1589364;73;1116;-54
2022/07/23 02:55:32;;;;;;;;;;;28.30;42.30;;;;;;1587299;73;803;-54
2022/07/23 02:57:34;;;;;;;;;;;28.30;42.30;;;;;;1596901;73;1292;-57
2022/07/23 02:59:35;;;;;;;;;;;28.30;42.30;;;;;;1595288;73;712;-55
2022/07/23 03:01:37;;;;;;;;;;;28.30;42.30;;;;;;1590808;73;1139;-57
2022/07/23 03:03:39;;;;;;;;;;;28.30;42.30;;;;;;1585605;73;692;-56
2022/07/23 03:05:41;;;;;;;;;;;28.20;42.30;;;;;;1590669;73;587;-55
2022/07/23 03:07:43;;;;;;;;;;;28.30;42.30;;;;;;1585456;73;1926;-54
2022/07/23 03:09:45;;;;;;;;;;;28.30;42.40;;;;;;1599188;73;734;-54
2022/07/23 03:11:47;;;;;;;;;;;28.20;42.40;;;;;;1569119;73;1559;-56
2022/07/23 03:13:48;;;;;;;;;;;28.20;42.50;;;;;;1586831;73;616;-56
2022/07/23 03:15:51;;;;;;;;;;;28.20;42.50;;;;;;1588818;73;931;-57
2022/07/23 03:17:53;;;;;;;;;;;28.20;42.40;;;;;;1600728;73;650;-54
2022/07/23 03:19:55;;;;;;;;;;;28.20;42.50;;;;;;1605343;73;728;-57
2022/07/23 03:21:57;;;;;;;;;;;28.20;42.50;;;;;;1586744;73;1195;-57
2022/07/23 03:23:58;;;;;;;;;;;28.20;42.60;;;;;;1588403;73;760;-57
2022/07/23 03:26:00;;;;;;;;;;;28.30;42.50;;;;;;1591805;73;1560;-54
2022/07/23 03:28:02;;;;;;;;;;;28.20;42.50;;;;;;1593805;73;1930;-54
2022/07/23 03:30:04;;;;;;;;;;;28.30;42.60;;;;;;1598691;73;792;-56
2022/07/23 03:32:06;;;;;;;;;;;28.30;42.60;;;;;;1591018;73;1101;-57
2022/07/23 03:34:08;;;;;;;;;;;28.20;42.60;;;;;;1577762;73;856;-56
2022/07/23 03:36:10;;;;;;;;;;;28.30;42.60;;;;;;1590046;73;667;-57
2022/07/23 03:38:12;;;;;;;;;;;28.30;42.50;;;;;;1588748;73;857;-56
2022/07/23 03:40:14;;;;;;;;;;;28.30;42.60;;;;;;1590561;73;1373;-58
2022/07/23 03:42:16;;;;;;;;;;;28.20;42.60;;;;;;1593492;73;1123;-56
2022/07/23 03:44:18;;;;;;;;;;;28.20;42.60;;;;;;1583337;73;666;-56
2022/07/23 03:46:19;;;;;;;;;;;28.30;42.60;;;;;;1586146;73;765;-55
2022/07/23 03:48:21;;;;;;;;;;;28.30;42.60;;;;;;1584660;73;1923;-57
2022/07/23 03:50:23;;;;;;;;;;;28.30;42.70;;;;;;1583403;73;711;-55
2022/07/23 03:52:25;;;;;;;;;;;28.20;42.60;;;;;;1595874;73;1148;-57
2022/07/23 03:54:27;;;;;;;;;;;28.30;42.60;;;;;;1577478;73;1575;-57
2022/07/23 03:56:29;;;;;;;;;;;28.30;42.60;;;;;;1591770;73;649;-57
2022/07/23 03:58:31;;;;;;;;;;;28.20;42.60;;;;;;1575608;73;601;-56
2022/07/23 04:00:33;;;;;;;;;;;28.20;42.60;;;;;;1586073;73;732;-54
2022/07/23 04:02:35;;;;;;;;;;;28.30;42.60;;;;;;1591616;73;1148;-56
2022/07/23 04:04:36;;;;;;;;;;;28.20;42.60;;;;;;1585369;73;676;-57
2022/07/23 04:06:38;;;;;;;;;;;28.30;42.60;;;;;;1575009;73;670;-56
2022/07/23 04:08:40;;;;;;;;;;;28.30;42.60;;;;;;1589495;73;1909;-57
2022/07/23 04:10:42;;;;;;;;;;;28.30;42.60;;;;;;1579496;73;704;-57
2022/07/23 04:12:44;;;;;;;;;;;28.30;42.60;;;;;;1579684;73;1157;-55
2022/07/23 04:14:46;;;;;;;;;;;28.20;42.70;;;;;;1580915;73;708;-56
2022/07/23 04:16:48;;;;;;;;;;;28.30;42.80;;;;;;1577853;73;650;-57
2022/07/23 04:18:50;;;;;;;;;;;28.20;42.80;;;;;;1591397;73;694;-54
2022/07/23 04:20:52;;;;;;;;;;;28.30;42.80;;;;;;1579855;73;739;-58
2022/07/23 04:22:54;;;;;;;;;;;28.20;42.80;;;;;;1593188;73;1656;-57
2022/07/23 04:24:56;;;;;;;;;;;28.30;42.70;;;;;;1586554;73;802;-55
2022/07/23 04:26:58;;;;;;;;;;;28.30;42.80;;;;;;1595482;73;1945;-58
2022/07/23 04:28:59;;;;;;;;;;;28.20;42.70;;;;;;1590226;73;784;-55
2022/07/23 04:31:01;;;;;;;;;;;28.20;42.70;;;;;;1590504;73;694;-56
2022/07/23 04:33:06;;;;;;;;;;;28.30;42.80;;;;;;1595003;73;1116;-54
2022/07/23 04:35:07;;;;;;;;;;;28.30;42.80;;;;;;1588086;73;1686;-56
2022/07/23 04:37:09;;;;;;;;;;;28.20;42.70;;;;;;1593557;73;1601;-57
2022/07/23 04:39:11;;;;;;;;;;;28.20;42.70;;;;;;1590657;73;760;-57
2022/07/23 04:41:12;;;;;;;;;;;28.20;42.70;;;;;;1608660;73;627;-56
2022/07/23 04:43:14;;;;;;;;;;;28.30;42.70;;;;;;1576190;73;1148;-56
2022/07/23 04:45:16;;;;;;;;;;;28.20;42.70;;;;;;1583489;73;694;-54
2022/07/23 04:47:18;;;;;;;;;;;28.20;42.80;;;;;;1583642;73;1943;-57
2022/07/23 04:49:20;;;;;;;;;;;28.20;42.70;;;;;;1582137;73;685;-57
2022/07/23 04:51:22;;;;;;;;;;;28.20;42.70;;;;;;1574670;73;1573;-58
2022/07/23 04:53:24;;;;;;;;;;;28.20;42.80;;;;;;1581928;73;1081;-57
2022/07/23 04:55:26;;;;;;;;;;;28.20;42.70;;;;;;1593062;73;649;-57
2022/07/23 04:57:27;;;;;;;;;;;28.20;42.70;;;;;;1584102;73;739;-55
2022/07/23 04:59:29;;;;;;;;;;;28.20;42.80;;;;;;1594341;73;846;-54
2022/07/23 05:01:31;;;;;;;;;;;28.20;42.80;;;;;;1594186;73;660;-57
2022/07/23 05:03:33;;;;;;;;;;;28.30;42.80;;;;;;1596157;73;1130;-56
2022/07/23 05:05:36;;;;;;;;;;;28.20;42.80;;;;;;1585974;73;1314;-55
2022/07/23 05:07:37;;;;;;;;;;;28.30;42.80;;;;;;1592043;73;1893;-57
2022/07/23 05:09:39;;;;;;;;;;;28.30;42.80;;;;;;1589244;73;750;-54
2022/07/23 05:11:41;;;;;;;;;;;28.20;42.90;;;;;;1580668;73;1191;-54
2022/07/23 05:13:43;;;;;;;;;;;28.20;42.90;;;;;;1576261;73;650;-54
2022/07/23 05:15:45;;;;;;;;;;;28.20;42.80;;;;;;1592303;73;666;-56
2022/07/23 05:17:47;;;;;;;;;;;28.20;42.80;;;;;;1588630;73;651;-55
2022/07/23 05:19:49;;;;;;;;;;;28.20;43.00;;;;;;1590803;73;1659;-55
2022/07/23 05:21:51;;;;;;;;;;;28.30;42.90;;;;;;1591465;73;1146;-56
2022/07/23 05:23:52;;;;;;;;;;;28.20;42.90;;;;;;1587804;73;696;-56
2022/07/23 05:25:54;;;;;;;;;;;28.20;42.90;;;;;;1591504;73;739;-56
2022/07/23 05:27:56;;;;;;;;;;;28.30;42.90;;;;;;1581675;73;1940;-56
2022/07/23 05:29:58;;;;;;;;;;;28.20;42.90;;;;;;1593228;73;698;-55
2022/07/23 05:32:00;;;;;;;;;;;28.30;43.00;;;;;;1598772;73;1187;-56
2022/07/23 05:34:02;;;;;;;;;;;28.20;42.90;;;;;;1592268;73;1735;-55
2022/07/23 05:36:04;;;;;;;;;;;28.20;43.00;;;;;;1586102;73;734;-58
2022/07/23 05:38:06;;;;;;;;;;;28.20;43.00;;;;;;1590185;73;665;-58
2022/07/23 05:40:08;;;;;;;;;;;28.20;43.00;;;;;;1591469;73;722;-58
2022/07/23 05:42:10;;;;;;;;;;;28.20;43.00;;;;;;1607264;73;1160;-55
2022/07/23 05:44:12;;;;;;;;;;;28.30;42.90;;;;;;1584947;73;713;-59
2022/07/23 05:46:14;;;;;;;;;;;28.20;43.10;;;;;;1578467;73;1335;-57
2022/07/23 05:48:16;;;;;;;;;;;28.20;42.90;;;;;;1585349;73;1916;-57
2022/07/23 05:50:18;;;;;;;;;;;28.30;42.90;;;;;;1586128;73;743;-58
2022/07/23 05:52:20;;;;;;;;;;;28.20;42.90;;;;;;1592140;73;1129;-57
2022/07/23 05:54:22;;;;;;;;;;;28.10;42.90;;;;;;1596476;73;772;-57
2022/07/23 05:56:23;;;;;;;;;;;28.20;43.00;;;;;;1609087;73;672;-56
2022/07/23 05:58:25;;;;;;;;;;;28.20;43.00;;;;;;1604730;73;700;-56
2022/07/23 06:00:27;;;;;;;;;;;28.10;43.00;;;;;;1595414;73;1332;-58
2022/07/23 06:02:29;;;;;;;;;;;28.20;43.00;;;;;;1588195;73;1178;-58
2022/07/23 06:04:31;;;;;;;;;;;28.10;43.00;;;;;;1588391;73;671;-57
2022/07/23 06:06:33;;;;;;;;;;;28.10;43.00;;;;;;1580161;73;735;-58
2022/07/23 06:08:35;;;;;;;;;;;28.10;43.00;;;;;;1585119;73;1934;-56
2022/07/23 06:10:37;;;;;;;;;;;28.00;43.00;;;;;;1584333;73;683;-56
2022/07/23 06:12:39;;;;;;;;;;;28.00;43.00;;;;;;1585898;73;1120;-55
2022/07/23 06:14:40;;;;;;;;;;;28.10;43.10;;;;;;1589842;73;1546;-58
2022/07/23 06:16:42;;;;;;;;;;;28.10;43.20;;;;;;1588176;73;767;-56
2022/07/23 06:18:44;;;;;;;;;;;28.10;43.10;;;;;;1579422;73;729;-55
2022/07/23 06:20:46;;;;;;;;;;;28.00;43.10;;;;;;1590180;73;684;-57
2022/07/23 06:22:48;;;;;;;;;;;28.00;43.10;;;;;;1576238;73;1149;-57
2022/07/23 06:24:51;;;;;;;;;;;28.00;42.90;;;;;;1594593;73;610;-55
2022/07/23 06:26:53;;;;;;;;;;;28.00;43.00;;;;;;1580864;73;762;-55
2022/07/23 06:28:55;;;;;;;;;;;28.00;43.10;;;;;;1593790;73;1890;-55
2022/07/23 06:30:57;;;;;;;;;;;27.90;42.50;;;;;;1597283;73;695;-56
2022/07/23 06:32:59;;;;;;;;;;;27.90;42.60;;;;;;1587242;73;1159;-56
2022/07/23 06:35:01;;;;;;;;;;;27.90;42.70;;;;;;1589788;73;745;-58
2022/07/23 06:37:03;;;;;;;;;;;27.90;42.80;;;;;;1588670;73;661;-58
2022/07/23 06:39:14;;;;;;;;;;;;;;;;;;;;;
2022/07/23 06:41:08;;;;;;;;;;;27.90;42.70;;;;;;1581555;73;223404;-62
2022/07/23 06:43:10;;;;;;;;;;;28.00;43.50;;;;;;1596409;73;1512;-62
2022/07/23 06:45:12;;;;;;;;;;;28.00;43.50;;;;;;1589485;73;675;-62
2022/07/23 06:47:13;;;;;;;;;;;27.90;42.90;;;;;;1595356;73;660;-64
2022/07/23 06:49:15;;;;;;;;;;;27.90;42.90;;;;;;1595603;73;1932;-63
2022/07/23 06:51:17;;;;;;;;;;;27.90;42.90;;;;;;1588958;73;746;-62
2022/07/23 06:53:19;;;;;;;;;;;27.90;42.90;;;;;;1585632;73;759;-62
2022/07/23 06:55:21;;;;;;;;;;;27.90;43.00;;;;;;1597263;73;721;-64
2022/07/23 06:57:25;;;;;;;;;;;27.90;42.90;;;;;;1577824;73;1590;-65
2022/07/23 06:59:26;;;;;;;;;;;27.90;42.90;;;;;;1587998;73;1321;-68
2022/07/23 07:01:28;;;;;;;;;;;27.90;42.80;;;;;;1584663;73;737;-64
2022/07/23 07:03:30;;;;;;;;;;;27.90;42.80;;;;;;1590078;73;654;-62
2022/07/23 07:05:32;;;;;;;;;;;27.90;42.80;;;;;;1579952;73;674;-64
2022/07/23 07:07:34;;;;;;;;;;;27.90;42.80;;;;;;1594543;73;736;-64
2022/07/23 07:09:37;;;;;;;;;;;27.90;42.80;;;;;;1582726;73;1932;-65
2022/07/23 07:11:39;;;;;;;;;;;27.90;42.80;;;;;;1572965;73;1499;-64
2022/07/23 07:13:41;;;;;;;;;;;27.90;42.70;;;;;;1595240;73;689;-64
2022/07/23 07:15:43;;;;;;;;;;;27.90;42.70;;;;;;1588755;73;752;-64
2022/07/23 07:17:45;;;;;;;;;;;27.90;42.80;;;;;;1591880;73;730;-64
2022/07/23 07:19:46;;;;;;;;;;;27.90;42.80;;;;;;1583915;73;1120;-64
2022/07/23 07:21:48;;;;;;;;;;;28.00;43.40;;;;;;1581024;73;768;-65
2022/07/23 07:23:50;;;;;;;;;;;27.90;42.70;;;;;;1586421;73;724;-64
2022/07/23 07:25:52;;;;;;;;;;;28.00;43.40;;;;;;1591243;73;1533;-65
2022/07/23 07:27:54;;;;;;;;;;;28.00;43.40;;;;;;1586114;73;809;-63
2022/07/23 07:29:56;;;;;;;;;;;27.90;42.80;;;;;;1579114;73;1948;-64
2022/07/23 07:31:58;;;;;;;;;;;27.90;42.80;;;;;;1589046;73;749;-64
2022/07/23 07:34:00;;;;;;;;;;;27.90;42.80;;;;;;1578392;73;728;-63
2022/07/23 07:36:01;;;;;;;;;;;27.90;42.80;;;;;;1588604;73;696;-64
2022/07/23 07:38:03;;;;;;;;;;;28.00;43.50;;;;;;1582708;73;692;-65
2022/07/23 07:40:05;;;;;;;;;;;27.90;43.00;;;;;;1582234;73;1578;-63
2022/07/23 07:42:07;;;;;;;;;;;27.80;43.10;;;;;;1593005;73;756;-63
2022/07/23 07:44:09;;;;;;;;;;;27.80;43.30;;;;;;1579184;73;747;-65
2022/07/23 07:46:11;;;;;;;;;;;27.80;43.40;;;;;;1591413;73;691;-63
2022/07/23 07:48:13;;;;;;;;;;;27.80;43.40;;;;;;1590128;73;1910;-64
2022/07/23 07:50:15;;;;;;;;;;;27.80;43.50;;;;;;1596036;73;1146;-64
2022/07/23 07:52:17;;;;;;;;;;;27.80;43.60;;;;;;1571347;73;748;-64
2022/07/23 07:54:19;;;;;;;;;;;27.80;43.60;;;;;;1582741;73;1432;-66
2022/07/23 07:56:21;;;;;;;;;;;27.70;43.60;;;;;;1582751;73;691;-67
2022/07/23 07:58:23;;;;;;;;;;;27.90;43.70;;;;;;1580388;73;921;-64
2022/07/23 08:00:25;;;;;;;;;;;27.90;43.70;;;;;;1582972;73;1120;-64
2022/07/23 08:02:26;;;;;;;;;;;27.80;43.90;;;;;;1592521;73;677;-64
2022/07/23 08:04:28;;;;;;;;;;;27.80;43.90;;;;;;1590489;73;667;-65
2022/07/23 08:06:30;;;;;;;;;;;27.80;43.90;;;;;;1579219;73;832;-64
2022/07/23 08:08:32;;;;;;;;;;;27.80;44.70;;;;;;1591218;73;1931;-64
2022/07/23 08:10:34;;;;;;;;;;;27.80;44.30;;;;;;1578050;73;1069;-66
2022/07/23 08:12:46;;;;;;;;;;;27.60;45.20;;;;;;1597940;73;749;-64
2022/07/23 08:14:48;;;;;;;;;;;27.50;45.20;;;;;;1581253;73;686;-64
2022/07/23 08:16:50;;;;;;;;;;;27.50;45.20;;;;;;1587056;73;774;-64
2022/07/23 08:18:52;;;;;;;;;;;27.50;45.40;;;;;;1586788;73;782;-65
2022/07/23 08:20:53;;;;;;;;;;;27.60;45.80;;;;;;1582591;73;1620;-65
2022/07/23 08:22:59;;;;;;;;;;;27.50;45.70;;;;;;1586342;73;752;-65
2022/07/23 08:25:01;;;;;;;;;;;27.60;46.50;;;;;;1579512;73;774;-66
2022/07/23 08:27:03;;;;;;;;;;;27.70;46.00;;;;;;1586514;73;659;-65
2022/07/23 08:29:05;;;;;;;;;;;27.70;46.10;;;;;;1595017;73;1923;-64
2022/07/23 08:31:07;;;;;;;;;;;27.70;46.00;;;;;;1607401;73;1146;-65
2022/07/23 08:33:13;;;;;;;;;;;27.70;46.10;;;;;;1591586;73;723;-65
2022/07/23 08:35:15;;;;;;;;;;;27.70;45.90;;;;;;1585489;73;1383;-65
2022/07/23 08:37:16;;;;;;;;;;;27.70;46.00;;;;;;1590156;73;687;-66
2022/07/23 08:39:18;;;;;;;;;;;27.80;46.10;;;;;;1592327;73;1255;-66
2022/07/23 08:41:21;;;;;;;;;;;27.70;46.20;;;;;;1580263;73;777;-65
2022/07/23 08:43:24;;;;;;;;;;;27.80;46.40;;;;;;1595890;73;729;-65
2022/07/23 08:45:26;;;;;;;;;;;27.70;46.20;;;;;;1591809;73;1746;-65
2022/07/23 08:47:28;;;;;;;;;;;27.70;46.00;;;;;;1576457;73;719;-65
2022/07/23 08:49:30;;;;;;;;;;;27.70;46.10;;;;;;1567575;74;1930;-65
2022/07/23 08:51:32;;;;;;;;;;;27.70;46.50;;;;;;1573232;73;744;-65
2022/07/23 08:53:35;;;;;;;;;;;27.70;46.30;;;;;;1577027;73;714;-65
2022/07/23 08:55:37;;;;;;;;;;;27.70;46.10;;;;;;1573097;73;631;-67
2022/07/23 08:57:39;;;;;;;;;;;27.70;46.10;;;;;;1571540;73;786;-65
2022/07/23 08:59:41;;;;;;;;;;;27.80;46.00;;;;;;1576131;73;1105;-65
2022/07/23 09:01:43;;;;;;;;;;;27.70;46.10;;;;;;1572874;73;706;-65
2022/07/23 09:03:45;;;;;;;;;;;27.80;46.70;;;;;;1572510;73;1582;-65
2022/07/23 09:05:47;;;;;;;;;;;27.70;46.80;;;;;;1571243;73;813;-65
2022/07/23 09:08:08;;;;;;;;;;;27.70;46.30;;;;;;1567556;73;727;-65
2022/07/23 09:10:10;;;;;;;;;;;27.80;46.40;;;;;;1570191;73;1931;-65
2022/07/23 09:12:12;;;;;;;;;;;27.80;46.10;;;;;;1571003;73;711;-65
2022/07/23 09:14:14;;;;;;;;;;;27.80;46.50;;;;;;1585203;73;1113;-66
2022/07/23 09:16:16;;;;;;;;;;;27.90;46.10;;;;;;1582940;74;689;-66
2022/07/23 09:18:18;;;;;;;;;;;27.90;46.20;;;;;;1587103;73;1582;-66
2022/07/23 09:20:20;;;;;;;;;;;27.90;46.00;;;;;;1595184;73;1173;-66
2022/07/23 09:22:23;;;;;;;;;;;27.90;45.80;;;;;;1589801;73;783;-65
2022/07/23 09:24:25;;;;;;;;;;;27.90;45.60;;;;;;1593175;73;716;-66
2022/07/23 09:26:32;;;;;;;;;;;27.90;45.50;;;;;;1590445;73;694;-66
2022/07/23 09:28:31;;;;;;;;;;;28.00;46.00;;;;;;1590307;73;968;-66
2022/07/23 09:30:39;;;;;;;;;;;28.00;45.70;;;;;;1594875;73;1939;-66
2022/07/23 09:32:37;;;;;;;;;;;28.00;45.30;;;;;;1569280;73;1585;-66
2022/07/23 09:34:39;;;;;;;;;;;28.00;45.00;;;;;;1570444;73;664;-66
2022/07/23 09:36:40;;;;;;;;;;;28.00;44.60;;;;;;1572983;73;693;-66
2022/07/23 09:38:49;;;;;;;;;;;28.00;44.10;;;;;;1569884;73;729;-65
2022/07/23 09:41:10;;;;;;;;;;;28.00;44.00;;;;;;1568976;73;1071;-63
2022/07/23 09:43:12;;;;;;;;;;;28.00;44.20;;;;;;1572897;73;708;-65
2022/07/23 09:45:14;;;;;;;;;;;28.00;43.90;;;;;;1571370;73;715;-67
2022/07/23 09:47:16;;;;;;;;;;;28.00;43.90;;;;;;1569704;73;876;-66
2022/07/23 09:49:22;;;;;;;;;;;27.90;43.30;;;;;;1584242;73;1928;-65
2022/07/23 09:51:30;;;;;;;;;;;28.00;43.80;;;;;;1576989;73;678;-66
2022/07/23 09:53:30;;;;;;;;;;;28.00;43.50;;;;;;1597062;74;1665;-65
2022/07/23 09:55:41;;;;;;;;;;;27.90;42.70;;;;;;1603687;73;572;-65
2022/07/23 09:57:36;;;;;;;;;;;28.00;43.40;;;;;;1587350;73;1591;-64
2022/07/23 09:59:38;;;;;;;;;;;27.90;42.70;;;;;;1592634;73;1558;-65
2022/07/23 10:01:40;;;;;;;;;;;27.90;43.00;;;;;;1580578;73;793;-64
2022/07/23 10:03:42;;;;;;;;;;;28.00;43.60;;;;;;1568759;73;725;-65
2022/07/23 10:05:44;;;;;;;;;;;28.00;43.60;;;;;;1588920;73;764;-65
2022/07/23 10:07:46;;;;;;;;;;;28.10;43.90;;;;;;1610576;73;725;-65
2022/07/23 10:09:48;;;;;;;;;;;28.10;43.60;;;;;;1585047;73;1939;-65
2022/07/23 10:11:50;;;;;;;;;;;28.20;43.90;;;;;;1600387;73;718;-64
2022/07/23 10:13:54;;;;;;;;;;;28.20;43.40;;;;;;1591753;73;1605;-65
2022/07/23 10:15:55;;;;;;;;;;;28.20;43.30;;;;;;1593760;73;1306;-64
2022/07/23 10:17:57;;;;;;;;;;;28.20;43.50;;;;;;1588831;73;769;-63
2022/07/23 10:19:59;;;;;;;;;;;28.20;43.40;;;;;;1598204;73;1206;-64
2022/07/23 10:22:08;;;;;;;;;;;28.10;43.10;;;;;;1593048;73;745;-65
2022/07/23 10:24:14;;;;;;;;;;;28.20;43.20;;;;;;1589913;73;697;-64
2022/07/23 10:26:24;;;;;;;;;;;28.30;43.10;;;;;;1595973;73;1658;-65
2022/07/23 10:28:43;;;;;;;;;;;28.10;43.10;;;;;;1594406;73;1569;-64
2022/07/23 10:31:01;;;;;;;;;;;28.00;43.20;;;;;;1589716;73;1906;-64
2022/07/23 10:33:20;;;;;;;;;;;28.10;43.50;;;;;;1595200;73;697;-64
2022/07/23 10:35:29;;;;;;;;;;;28.10;43.50;;;;;;1586071;73;1939;-64
2022/07/23 10:37:42;;;;;;;;;;;28.10;44.00;;;;;;1599658;73;701;-64
2022/07/23 10:39:44;;;;;;;;;;;28.10;44.20;;;;;;1589718;73;1104;-64
2022/07/23 10:41:46;;;;;;;;;;;28.00;44.10;;;;;;1587622;73;1569;-64
2022/07/23 10:43:49;;;;;;;;;;;28.10;43.80;;;;;;1590081;73;697;-65
2022/07/23 10:45:51;;;;;;;;;;;28.10;43.70;;;;;;1588916;73;1843;-64
2022/07/23 10:47:53;;;;;;;;;;;28.10;43.60;;;;;;1591103;73;770;-64
2022/07/23 10:49:55;;;;;;;;;;;28.10;43.80;;;;;;1573539;73;1928;-66
2022/07/23 10:52:17;;;;;;;;;;;28.10;43.70;;;;;;1610275;72;1149;-65
2022/07/23 10:54:22;;;;;;;;;;;28.10;43.90;;;;;;1532329;77;692;-64
2022/07/23 10:56:42;;;;;;;;;;;28.10;43.90;;;;;;1524595;76;1558;-64
2022/07/23 10:58:48;;;;;;;;;;;28.10;44.10;;;;;;1523376;76;785;-65
2022/07/23 11:00:50;;;;;;;;;;;28.10;43.80;;;;;;1529070;76;1111;-65
2022/07/23 11:02:53;;;;;;;;;;;28.10;43.60;;;;;;1538016;76;747;-65
2022/07/23 11:04:57;;;;;;;;;;;28.10;43.40;;;;;;1532497;76;1783;-65
2022/07/23 11:07:00;;;;;;;;;;;28.10;43.50;;;;;;1532922;75;2126;-64
2022/07/23 11:09:20;;;;;;;;;;;28.10;43.40;;;;;;1540430;76;780;-66
2022/07/23 11:11:22;;;;;;;;;;;28.10;43.40;;;;;;1540383;76;1509;-65
2022/07/23 11:13:30;;;;;;;;;;;28.10;43.30;;;;;;1534718;76;782;-65
2022/07/23 11:15:32;;;;;;;;;;;28.10;43.10;;;;;;1531701;76;685;-66
2022/07/23 11:17:36;;;;;;;;;;;28.10;43.10;;;;;;1523372;76;822;-64
2022/07/23 11:19:40;;;;;;;;;;;28.10;43.00;;;;;;1534532;76;1627;-64
2022/07/23 11:21:42;;;;;;;;;;;28.10;43.00;;;;;;1531737;76;1473;-66
2022/07/23 11:24:02;;;;;;;;;;;28.10;43.20;;;;;;1533784;76;1545;-65
2022/07/23 11:26:05;;;;;;;;;;;28.10;43.20;;;;;;1540736;76;776;-66
2022/07/23 11:28:11;;;;;;;;;;;28.10;43.10;;;;;;1539267;76;748;-65
2022/07/23 11:30:30;;;;;;;;;;;28.10;43.00;;;;;;1533325;76;1930;-66
2022/07/23 11:32:33;;;;;;;;;;;28.10;42.90;;;;;;1518034;76;702;-68
2022/07/23 11:34:48;;;;;;;;;;;28.10;42.70;;;;;;1531938;76;639;-65
2022/07/23 11:36:50;;;;;;;;;;;28.10;42.80;;;;;;1532408;76;738;-66
2022/07/23 11:38:52;;;;;;;;;;;28.00;42.80;;;;;;1532157;76;1559;-66
2022/07/23 11:40:54;;;;;;;;;;;28.00;42.90;;;;;;1545629;76;1164;-66
2022/07/23 11:43:00;;;;;;;;;;;28.10;43.00;;;;;;1529948;76;791;-66
2022/07/23 11:45:02;;;;;;;;;;;28.00;43.10;;;;;;1533177;76;2071;-66
2022/07/23 11:47:05;;;;;;;;;;;28.00;43.10;;;;;;1539116;76;711;-67
2022/07/23 11:49:07;;;;;;;;;;;28.00;43.20;;;;;;1535701;76;722;-66
2022/07/23 11:51:08;;;;;;;;;;;28.00;43.20;;;;;;1543088;76;1950;-65
2022/07/23 11:53:10;;;;;;;;;;;28.00;43.20;;;;;;1520908;76;1554;-66
2022/07/23 11:55:15;;;;;;;;;;;27.90;42.60;;;;;;1538137;76;752;-65
2022/07/23 11:57:16;;;;;;;;;;;27.90;42.70;;;;;;1545068;75;1512;-65
2022/07/23 11:59:18;;;;;;;;;;;28.00;43.70;;;;;;1545034;75;1098;-65
2022/07/23 12:01:20;;;;;;;;;;;27.90;43.00;;;;;;1519208;76;795;-65
2022/07/23 12:03:22;;;;;;;;;;;27.90;44.40;;;;;;1527016;76;729;-65
2022/07/23 12:05:24;;;;;;;;;;;27.90;43.40;;;;;;1524649;76;727;-65
2022/07/23 12:07:30;;;;;;;;;;;27.90;43.60;;;;;;1534855;76;1560;-65
2022/07/23 12:09:32;;;;;;;;;;;27.90;44.30;;;;;;1532399;76;1151;-65
2022/07/23 12:11:34;;;;;;;;;;;27.90;44.60;;;;;;1521248;76;1956;-65